sensor_id;sensor_type;location;lat;lon;timestamp;P1;durP1;ratioP1;P2;durP2;ratioP2
26163;SDS011;13914;48.178;11.716;2023-02-13T00:00:55;19.63;;;10.02;;
26163;SDS011;13914;48.178;11.716;2023-02-13T00:03:40;22.13;;;11.63;;
26163;SDS011;13914;48.178;11.716;2023-02-13T00:06:26;22.05;;;11.55;;
26163;SDS011;13914;48.178;11.716;2023-02-13T00:09:13;21.95;;;10.25;;
26163;SDS011;13914;48.178;11.716;2023-02-13T00:12:00;29.75;;;10.45;;
26163;SDS011;13914;48.178;11.716;2023-02-13T00:14:48;29.63;;;11.20;;
26163;SDS011;13914;48.178;11.716;2023-02-13T00:17:36;23.23;;;11.20;;
26163;SDS011;13914;48.178;11.716;2023-02-13T00:20:22;32.25;;;11.60;;
26163;SDS011;13914;48.178;11.716;2023-02-13T00:23:06;20.25;;;7.18;;
26163;SDS011;13914;48.178;11.716;2023-02-13T00:25:53;29.48;;;10.65;;
26163;SDS011;13914;48.178;11.716;2023-02-13T00:28:38;27.52;;;10.50;;
26163;SDS011;13914;48.178;11.716;2023-02-13T00:31:27;25.13;;;11.48;;
26163;SDS011;13914;48.178;11.716;2023-02-13T00:34:12;27.98;;;10.30;;
26163;SDS011;13914;48.178;11.716;2023-02-13T00:36:59;28.80;;;13.35;;
26163;SDS011;13914;48.178;11.716;2023-02-13T00:39:44;21.95;;;10.27;;
26163;SDS011;13914;48.178;11.716;2023-02-13T00:42:31;22.27;;;10.73;;
26163;SDS011;13914;48.178;11.716;2023-02-13T00:45:16;27.92;;;11.77;;
26163;SDS011;13914;48.178;11.716;2023-02-13T00:48:04;24.85;;;10.23;;
26163;SDS011;13914;48.178;11.716;2023-02-13T00:50:51;29.25;;;11.18;;
26163;SDS011;13914;48.178;11.716;2023-02-13T00:53:37;20.40;;;10.10;;
26163;SDS011;13914;48.178;11.716;2023-02-13T00:56:23;24.63;;;11.13;;
26163;SDS011;13914;48.178;11.716;2023-02-13T00:59:09;20.45;;;9.75;;
26163;SDS011;13914;48.178;11.716;2023-02-13T01:01:56;21.17;;;10.65;;
26163;SDS011;13914;48.178;11.716;2023-02-13T01:04:41;23.13;;;10.73;;
26163;SDS011;13914;48.178;11.716;2023-02-13T01:07:29;23.52;;;11.00;;
26163;SDS011;13914;48.178;11.716;2023-02-13T01:10:15;32.58;;;11.50;;
26163;SDS011;13914;48.178;11.716;2023-02-13T01:13:02;32.83;;;11.27;;
26163;SDS011;13914;48.178;11.716;2023-02-13T01:15:49;23.45;;;11.00;;
26163;SDS011;13914;48.178;11.716;2023-02-13T01:18:35;24.80;;;10.57;;
26163;SDS011;13914;48.178;11.716;2023-02-13T01:21:23;18.95;;;10.48;;
26163;SDS011;13914;48.178;11.716;2023-02-13T01:24:07;32.10;;;11.68;;
26163;SDS011;13914;48.178;11.716;2023-02-13T01:26:51;20.25;;;10.20;;
26163;SDS011;13914;48.178;11.716;2023-02-13T01:29:39;24.58;;;11.23;;
26163;SDS011;13914;48.178;11.716;2023-02-13T01:32:24;31.80;;;13.93;;
26163;SDS011;13914;48.178;11.716;2023-02-13T01:37:57;21.88;;;10.30;;
26163;SDS011;13914;48.178;11.716;2023-02-13T01:40:51;23.90;;;10.85;;
26163;SDS011;13914;48.178;11.716;2023-02-13T01:43:53;24.70;;;10.50;;
26163;SDS011;13914;48.178;11.716;2023-02-13T01:46:42;27.08;;;11.65;;
26163;SDS011;13914;48.178;11.716;2023-02-13T01:49:28;25.02;;;11.70;;
26163;SDS011;13914;48.178;11.716;2023-02-13T01:52:14;29.15;;;12.70;;
26163;SDS011;13914;48.178;11.716;2023-02-13T01:55:01;31.25;;;12.60;;
26163;SDS011;13914;48.178;11.716;2023-02-13T01:57:53;25.25;;;12.75;;
26163;SDS011;13914;48.178;11.716;2023-02-13T02:00:57;28.02;;;12.25;;
26163;SDS011;13914;48.178;11.716;2023-02-13T02:04:03;23.23;;;11.85;;
26163;SDS011;13914;48.178;11.716;2023-02-13T02:07:22;27.38;;;11.90;;
26163;SDS011;13914;48.178;11.716;2023-02-13T02:10:13;22.70;;;10.95;;
26163;SDS011;13914;48.178;11.716;2023-02-13T02:13:13;28.52;;;12.30;;
26163;SDS011;13914;48.178;11.716;2023-02-13T02:16:02;24.48;;;11.30;;
26163;SDS011;13914;48.178;11.716;2023-02-13T02:18:46;26.27;;;12.13;;
26163;SDS011;13914;48.178;11.716;2023-02-13T02:21:44;24.02;;;10.73;;
26163;SDS011;13914;48.178;11.716;2023-02-13T02:25:15;22.92;;;11.65;;
26163;SDS011;13914;48.178;11.716;2023-02-13T02:29:03;21.55;;;11.43;;
26163;SDS011;13914;48.178;11.716;2023-02-13T02:43:23;20.70;;;9.73;;
26163;SDS011;13914;48.178;11.716;2023-02-13T02:50:39;21.02;;;10.50;;
26163;SDS011;13914;48.178;11.716;2023-02-13T02:54:07;25.48;;;11.52;;
26163;SDS011;13914;48.178;11.716;2023-02-13T02:57:23;18.90;;;9.40;;
26163;SDS011;13914;48.178;11.716;2023-02-13T03:00:36;22.58;;;11.27;;
26163;SDS011;13914;48.178;11.716;2023-02-13T03:03:45;34.00;;;13.30;;
26163;SDS011;13914;48.178;11.716;2023-02-13T03:06:56;25.83;;;12.23;;
26163;SDS011;13914;48.178;11.716;2023-02-13T03:09:51;30.63;;;11.15;;
26163;SDS011;13914;48.178;11.716;2023-02-13T03:13:13;38.30;;;11.57;;
26163;SDS011;13914;48.178;11.716;2023-02-13T03:16:22;26.20;;;10.63;;
26163;SDS011;13914;48.178;11.716;2023-02-13T03:19:48;27.83;;;10.77;;
26163;SDS011;13914;48.178;11.716;2023-02-13T03:26:59;19.02;;;9.27;;
26163;SDS011;13914;48.178;11.716;2023-02-13T03:34:12;24.08;;;10.05;;
26163;SDS011;13914;48.178;11.716;2023-02-13T03:37:05;21.63;;;9.63;;
26163;SDS011;13914;48.178;11.716;2023-02-13T03:40:17;32.60;;;9.88;;
26163;SDS011;13914;48.178;11.716;2023-02-13T03:47:03;27.13;;;9.60;;
26163;SDS011;13914;48.178;11.716;2023-02-13T03:49:53;19.88;;;10.27;;
26163;SDS011;13914;48.178;11.716;2023-02-13T03:53:10;20.42;;;10.27;;
26163;SDS011;13914;48.178;11.716;2023-02-13T03:55:59;22.15;;;9.77;;
26163;SDS011;13914;48.178;11.716;2023-02-13T03:59:04;30.80;;;10.55;;
26163;SDS011;13914;48.178;11.716;2023-02-13T04:02:10;25.55;;;8.98;;
26163;SDS011;13914;48.178;11.716;2023-02-13T04:05:05;20.33;;;10.20;;
26163;SDS011;13914;48.178;11.716;2023-02-13T04:08:08;25.73;;;9.23;;
26163;SDS011;13914;48.178;11.716;2023-02-13T04:14:29;21.65;;;9.15;;
26163;SDS011;13914;48.178;11.716;2023-02-13T04:21:04;18.70;;;9.35;;
26163;SDS011;13914;48.178;11.716;2023-02-13T04:23:52;29.02;;;9.35;;
26163;SDS011;13914;48.178;11.716;2023-02-13T04:26:38;21.70;;;10.77;;
26163;SDS011;13914;48.178;11.716;2023-02-13T04:29:27;24.10;;;10.27;;
26163;SDS011;13914;48.178;11.716;2023-02-13T04:32:13;22.55;;;10.48;;
26163;SDS011;13914;48.178;11.716;2023-02-13T04:35:02;16.63;;;9.05;;
26163;SDS011;13914;48.178;11.716;2023-02-13T04:37:49;17.33;;;9.20;;
26163;SDS011;13914;48.178;11.716;2023-02-13T04:40:36;15.50;;;8.15;;
26163;SDS011;13914;48.178;11.716;2023-02-13T04:43:23;16.73;;;8.05;;
26163;SDS011;13914;48.178;11.716;2023-02-13T04:46:08;15.32;;;8.38;;
26163;SDS011;13914;48.178;11.716;2023-02-13T04:48:54;16.25;;;7.68;;
26163;SDS011;13914;48.178;11.716;2023-02-13T04:51:40;20.63;;;9.45;;
26163;SDS011;13914;48.178;11.716;2023-02-13T04:54:26;23.60;;;8.43;;
26163;SDS011;13914;48.178;11.716;2023-02-13T04:59:57;17.08;;;9.30;;
26163;SDS011;13914;48.178;11.716;2023-02-13T05:02:44;14.95;;;7.70;;
26163;SDS011;13914;48.178;11.716;2023-02-13T05:05:30;21.38;;;9.00;;
26163;SDS011;13914;48.178;11.716;2023-02-13T05:08:16;18.70;;;9.00;;
26163;SDS011;13914;48.178;11.716;2023-02-13T05:11:01;19.23;;;9.32;;
26163;SDS011;13914;48.178;11.716;2023-02-13T05:13:47;18.38;;;9.30;;
26163;SDS011;13914;48.178;11.716;2023-02-13T05:16:32;15.45;;;7.07;;
26163;SDS011;13914;48.178;11.716;2023-02-13T05:19:21;14.80;;;7.10;;
26163;SDS011;13914;48.178;11.716;2023-02-13T05:22:07;13.48;;;7.50;;
26163;SDS011;13914;48.178;11.716;2023-02-13T05:25:13;16.38;;;7.07;;
26163;SDS011;13914;48.178;11.716;2023-02-13T05:28:00;18.73;;;9.40;;
26163;SDS011;13914;48.178;11.716;2023-02-13T05:30:46;16.77;;;9.00;;
26163;SDS011;13914;48.178;11.716;2023-02-13T05:39:02;20.90;;;10.93;;
26163;SDS011;13914;48.178;11.716;2023-02-13T05:41:50;19.63;;;10.00;;
26163;SDS011;13914;48.178;11.716;2023-02-13T05:44:36;17.70;;;9.63;;
26163;SDS011;13914;48.178;11.716;2023-02-13T05:47:22;20.90;;;9.55;;
26163;SDS011;13914;48.178;11.716;2023-02-13T05:50:08;16.35;;;7.85;;
26163;SDS011;13914;48.178;11.716;2023-02-13T05:52:55;26.58;;;11.68;;
26163;SDS011;13914;48.178;11.716;2023-02-13T05:55:41;23.70;;;10.23;;
26163;SDS011;13914;48.178;11.716;2023-02-13T05:58:27;20.00;;;10.52;;
26163;SDS011;13914;48.178;11.716;2023-02-13T06:01:13;18.87;;;9.97;;
26163;SDS011;13914;48.178;11.716;2023-02-13T06:03:57;22.05;;;10.85;;
26163;SDS011;13914;48.178;11.716;2023-02-13T06:06:42;17.13;;;8.52;;
26163;SDS011;13914;48.178;11.716;2023-02-13T06:09:30;23.77;;;11.80;;
26163;SDS011;13914;48.178;11.716;2023-02-13T06:12:14;22.67;;;11.80;;
26163;SDS011;13914;48.178;11.716;2023-02-13T06:15:00;24.52;;;12.38;;
26163;SDS011;13914;48.178;11.716;2023-02-13T06:17:45;20.70;;;10.82;;
26163;SDS011;13914;48.178;11.716;2023-02-13T06:20:30;20.02;;;9.77;;
26163;SDS011;13914;48.178;11.716;2023-02-13T06:23:14;18.98;;;9.40;;
26163;SDS011;13914;48.178;11.716;2023-02-13T06:26:03;16.42;;;8.57;;
26163;SDS011;13914;48.178;11.716;2023-02-13T06:28:51;22.40;;;11.73;;
26163;SDS011;13914;48.178;11.716;2023-02-13T06:31:37;13.38;;;7.18;;
26163;SDS011;13914;48.178;11.716;2023-02-13T06:34:23;17.20;;;8.60;;
26163;SDS011;13914;48.178;11.716;2023-02-13T06:39:54;26.77;;;11.45;;
26163;SDS011;13914;48.178;11.716;2023-02-13T06:42:44;20.75;;;11.43;;
26163;SDS011;13914;48.178;11.716;2023-02-13T06:45:33;17.88;;;10.10;;
26163;SDS011;13914;48.178;11.716;2023-02-13T06:48:21;21.02;;;10.32;;
26163;SDS011;13914;48.178;11.716;2023-02-13T06:51:09;24.10;;;11.25;;
26163;SDS011;13914;48.178;11.716;2023-02-13T06:53:54;22.40;;;12.45;;
26163;SDS011;13914;48.178;11.716;2023-02-13T06:56:43;16.48;;;8.10;;
26163;SDS011;13914;48.178;11.716;2023-02-13T07:02:15;21.52;;;10.93;;
26163;SDS011;13914;48.178;11.716;2023-02-13T07:05:03;23.13;;;10.13;;
26163;SDS011;13914;48.178;11.716;2023-02-13T07:07:49;19.25;;;9.60;;
26163;SDS011;13914;48.178;11.716;2023-02-13T07:10:38;19.30;;;9.48;;
26163;SDS011;13914;48.178;11.716;2023-02-13T07:13:25;21.80;;;11.43;;
26163;SDS011;13914;48.178;11.716;2023-02-13T07:16:11;18.77;;;9.45;;
26163;SDS011;13914;48.178;11.716;2023-02-13T07:18:56;16.48;;;8.65;;
26163;SDS011;13914;48.178;11.716;2023-02-13T07:21:43;23.75;;;11.98;;
26163;SDS011;13914;48.178;11.716;2023-02-13T07:24:29;20.67;;;9.57;;
26163;SDS011;13914;48.178;11.716;2023-02-13T07:27:18;25.63;;;11.93;;
26163;SDS011;13914;48.178;11.716;2023-02-13T07:30:05;17.63;;;9.15;;
26163;SDS011;13914;48.178;11.716;2023-02-13T07:32:57;18.15;;;8.70;;
26163;SDS011;13914;48.178;11.716;2023-02-13T07:35:47;19.75;;;8.80;;
26163;SDS011;13914;48.178;11.716;2023-02-13T07:38:37;19.40;;;9.90;;
26163;SDS011;13914;48.178;11.716;2023-02-13T07:41:22;19.48;;;10.05;;
26163;SDS011;13914;48.178;11.716;2023-02-13T07:44:10;21.45;;;10.85;;
26163;SDS011;13914;48.178;11.716;2023-02-13T07:46:56;18.48;;;9.90;;
26163;SDS011;13914;48.178;11.716;2023-02-13T07:49:44;16.27;;;7.72;;
26163;SDS011;13914;48.178;11.716;2023-02-13T07:52:30;20.70;;;10.05;;
26163;SDS011;13914;48.178;11.716;2023-02-13T07:55:18;21.90;;;11.20;;
26163;SDS011;13914;48.178;11.716;2023-02-13T07:58:02;21.45;;;11.27;;
26163;SDS011;13914;48.178;11.716;2023-02-13T08:00:48;22.65;;;11.43;;
26163;SDS011;13914;48.178;11.716;2023-02-13T08:03:33;20.30;;;10.75;;
26163;SDS011;13914;48.178;11.716;2023-02-13T08:06:18;22.85;;;11.13;;
26163;SDS011;13914;48.178;11.716;2023-02-13T08:09:05;18.85;;;10.35;;
26163;SDS011;13914;48.178;11.716;2023-02-13T08:12:20;18.58;;;9.23;;
26163;SDS011;13914;48.178;11.716;2023-02-13T08:15:06;18.20;;;9.30;;
26163;SDS011;13914;48.178;11.716;2023-02-13T08:17:55;19.30;;;10.13;;
26163;SDS011;13914;48.178;11.716;2023-02-13T08:20:41;18.15;;;10.07;;
26163;SDS011;13914;48.178;11.716;2023-02-13T08:23:27;18.70;;;9.93;;
26163;SDS011;13914;48.178;11.716;2023-02-13T08:26:12;22.42;;;11.02;;
26163;SDS011;13914;48.178;11.716;2023-02-13T08:28:57;22.27;;;12.15;;
26163;SDS011;13914;48.178;11.716;2023-02-13T08:31:44;30.13;;;12.52;;
26163;SDS011;13914;48.178;11.716;2023-02-13T08:34:30;24.13;;;11.88;;
26163;SDS011;13914;48.178;11.716;2023-02-13T08:37:15;21.13;;;10.15;;
26163;SDS011;13914;48.178;11.716;2023-02-13T08:40:02;20.75;;;9.98;;
26163;SDS011;13914;48.178;11.716;2023-02-13T08:42:49;23.90;;;12.02;;
26163;SDS011;13914;48.178;11.716;2023-02-13T08:45:35;23.23;;;11.38;;
26163;SDS011;13914;48.178;11.716;2023-02-13T08:48:21;23.42;;;11.30;;
26163;SDS011;13914;48.178;11.716;2023-02-13T08:51:09;25.58;;;12.15;;
26163;SDS011;13914;48.178;11.716;2023-02-13T08:53:57;20.92;;;10.35;;
26163;SDS011;13914;48.178;11.716;2023-02-13T08:56:44;26.40;;;12.27;;
26163;SDS011;13914;48.178;11.716;2023-02-13T08:59:30;22.13;;;11.05;;
26163;SDS011;13914;48.178;11.716;2023-02-13T09:02:17;25.45;;;11.52;;
26163;SDS011;13914;48.178;11.716;2023-02-13T09:05:02;26.58;;;11.48;;
26163;SDS011;13914;48.178;11.716;2023-02-13T09:07:47;24.80;;;11.75;;
26163;SDS011;13914;48.178;11.716;2023-02-13T09:10:35;21.95;;;10.90;;
26163;SDS011;13914;48.178;11.716;2023-02-13T09:13:22;19.48;;;10.30;;
26163;SDS011;13914;48.178;11.716;2023-02-13T09:16:09;17.83;;;9.18;;
26163;SDS011;13914;48.178;11.716;2023-02-13T09:18:53;19.23;;;9.27;;
26163;SDS011;13914;48.178;11.716;2023-02-13T09:21:39;17.92;;;9.40;;
26163;SDS011;13914;48.178;11.716;2023-02-13T09:24:25;24.27;;;11.32;;
26163;SDS011;13914;48.178;11.716;2023-02-13T09:27:13;23.08;;;12.00;;
26163;SDS011;13914;48.178;11.716;2023-02-13T09:29:58;17.15;;;9.32;;
26163;SDS011;13914;48.178;11.716;2023-02-13T09:32:45;22.60;;;11.05;;
26163;SDS011;13914;48.178;11.716;2023-02-13T09:35:31;18.67;;;8.98;;
26163;SDS011;13914;48.178;11.716;2023-02-13T09:38:17;17.10;;;9.35;;
26163;SDS011;13914;48.178;11.716;2023-02-13T09:41:04;19.35;;;10.13;;
26163;SDS011;13914;48.178;11.716;2023-02-13T09:44:15;19.00;;;9.98;;
26163;SDS011;13914;48.178;11.716;2023-02-13T09:47:41;24.40;;;11.63;;
26163;SDS011;13914;48.178;11.716;2023-02-13T09:50:30;19.98;;;10.07;;
26163;SDS011;13914;48.178;11.716;2023-02-13T09:53:20;17.08;;;8.95;;
26163;SDS011;13914;48.178;11.716;2023-02-13T10:03:30;19.95;;;10.18;;
26163;SDS011;13914;48.178;11.716;2023-02-13T10:06:30;23.97;;;12.13;;
26163;SDS011;13914;48.178;11.716;2023-02-13T10:09:42;21.92;;;10.70;;
26163;SDS011;13914;48.178;11.716;2023-02-13T10:16:39;28.35;;;12.35;;
26163;SDS011;13914;48.178;11.716;2023-02-13T10:19:56;28.52;;;12.98;;
26163;SDS011;13914;48.178;11.716;2023-02-13T10:22:51;19.50;;;10.27;;
26163;SDS011;13914;48.178;11.716;2023-02-13T10:26:04;19.60;;;10.70;;
26163;SDS011;13914;48.178;11.716;2023-02-13T10:29:05;18.63;;;10.50;;
26163;SDS011;13914;48.178;11.716;2023-02-13T10:33:19;19.08;;;9.60;;
26163;SDS011;13914;48.178;11.716;2023-02-13T10:36:28;19.73;;;10.15;;
26163;SDS011;13914;48.178;11.716;2023-02-13T10:39:26;20.92;;;10.55;;
26163;SDS011;13914;48.178;11.716;2023-02-13T10:42:49;21.13;;;11.55;;
26163;SDS011;13914;48.178;11.716;2023-02-13T10:56:18;21.45;;;9.93;;
26163;SDS011;13914;48.178;11.716;2023-02-13T11:02:38;17.25;;;9.35;;
26163;SDS011;13914;48.178;11.716;2023-02-13T11:05:25;20.90;;;10.38;;
26163;SDS011;13914;48.178;11.716;2023-02-13T11:11:32;22.05;;;11.18;;
26163;SDS011;13914;48.178;11.716;2023-02-13T11:14:28;16.83;;;8.95;;
26163;SDS011;13914;48.178;11.716;2023-02-13T11:17:15;22.52;;;12.00;;
26163;SDS011;13914;48.178;11.716;2023-02-13T11:20:03;19.83;;;10.75;;
26163;SDS011;13914;48.178;11.716;2023-02-13T11:23:37;22.35;;;11.13;;
26163;SDS011;13914;48.178;11.716;2023-02-13T11:26:35;19.88;;;11.18;;
26163;SDS011;13914;48.178;11.716;2023-02-13T11:29:35;16.65;;;8.80;;
26163;SDS011;13914;48.178;11.716;2023-02-13T11:32:25;19.45;;;10.20;;
26163;SDS011;13914;48.178;11.716;2023-02-13T11:35:31;21.48;;;11.55;;
26163;SDS011;13914;48.178;11.716;2023-02-13T11:41:04;19.90;;;11.38;;
26163;SDS011;13914;48.178;11.716;2023-02-13T11:44:00;23.57;;;11.67;;
26163;SDS011;13914;48.178;11.716;2023-02-13T11:46:50;20.17;;;11.68;;
26163;SDS011;13914;48.178;11.716;2023-02-13T11:49:37;19.65;;;10.80;;
26163;SDS011;13914;48.178;11.716;2023-02-13T11:52:30;20.92;;;11.30;;
26163;SDS011;13914;48.178;11.716;2023-02-13T11:55:25;23.30;;;10.48;;
26163;SDS011;13914;48.178;11.716;2023-02-13T11:58:24;21.30;;;10.05;;
26163;SDS011;13914;48.178;11.716;2023-02-13T12:04:05;23.63;;;11.85;;
26163;SDS011;13914;48.178;11.716;2023-02-13T12:16:36;21.10;;;11.50;;
26163;SDS011;13914;48.178;11.716;2023-02-13T12:19:34;18.05;;;9.13;;
26163;SDS011;13914;48.178;11.716;2023-02-13T12:22:39;27.40;;;12.18;;
26163;SDS011;13914;48.178;11.716;2023-02-13T12:26:01;18.58;;;9.68;;
26163;SDS011;13914;48.178;11.716;2023-02-13T12:29:26;18.02;;;10.10;;
26163;SDS011;13914;48.178;11.716;2023-02-13T12:32:43;23.73;;;13.07;;
26163;SDS011;13914;48.178;11.716;2023-02-13T12:35:55;21.38;;;10.68;;
26163;SDS011;13914;48.178;11.716;2023-02-13T12:39:20;19.88;;;10.95;;
26163;SDS011;13914;48.178;11.716;2023-02-13T12:42:24;19.48;;;10.68;;
26163;SDS011;13914;48.178;11.716;2023-02-13T12:45:37;18.15;;;10.40;;
26163;SDS011;13914;48.178;11.716;2023-02-13T12:48:57;21.15;;;11.38;;
26163;SDS011;13914;48.178;11.716;2023-02-13T13:01:53;27.52;;;13.10;;
26163;SDS011;13914;48.178;11.716;2023-02-13T13:05:16;17.55;;;9.95;;
26163;SDS011;13914;48.178;11.716;2023-02-13T13:11:43;21.65;;;11.77;;
26163;SDS011;13914;48.178;11.716;2023-02-13T13:17:58;19.27;;;10.27;;
26163;SDS011;13914;48.178;11.716;2023-02-13T13:27:18;19.20;;;10.63;;
26163;SDS011;13914;48.178;11.716;2023-02-13T13:30:20;19.67;;;9.85;;
26163;SDS011;13914;48.178;11.716;2023-02-13T13:33:10;19.95;;;11.00;;
26163;SDS011;13914;48.178;11.716;2023-02-13T13:42:26;18.85;;;10.75;;
26163;SDS011;13914;48.178;11.716;2023-02-13T13:51:37;21.80;;;12.25;;
26163;SDS011;13914;48.178;11.716;2023-02-13T13:54:23;18.90;;;10.77;;
26163;SDS011;13914;48.178;11.716;2023-02-13T13:57:20;22.02;;;12.18;;
26163;SDS011;13914;48.178;11.716;2023-02-13T14:00:28;22.95;;;12.30;;
26163;SDS011;13914;48.178;11.716;2023-02-13T14:03:20;19.33;;;10.75;;
26163;SDS011;13914;48.178;11.716;2023-02-13T14:09:10;18.10;;;9.80;;
26163;SDS011;13914;48.178;11.716;2023-02-13T14:18:21;24.33;;;12.75;;
26163;SDS011;13914;48.178;11.716;2023-02-13T14:21:08;19.45;;;10.77;;
26163;SDS011;13914;48.178;11.716;2023-02-13T14:23:52;20.90;;;11.25;;
26163;SDS011;13914;48.178;11.716;2023-02-13T14:26:39;22.83;;;11.75;;
26163;SDS011;13914;48.178;11.716;2023-02-13T14:29:25;18.55;;;9.88;;
26163;SDS011;13914;48.178;11.716;2023-02-13T14:32:31;22.10;;;11.35;;
26163;SDS011;13914;48.178;11.716;2023-02-13T14:35:25;19.77;;;10.90;;
26163;SDS011;13914;48.178;11.716;2023-02-13T14:38:22;18.15;;;10.73;;
26163;SDS011;13914;48.178;11.716;2023-02-13T14:41:39;21.98;;;12.02;;
26163;SDS011;13914;48.178;11.716;2023-02-13T14:44:44;23.08;;;13.40;;
26163;SDS011;13914;48.178;11.716;2023-02-13T14:47:34;23.33;;;12.20;;
26163;SDS011;13914;48.178;11.716;2023-02-13T14:50:26;22.65;;;11.70;;
26163;SDS011;13914;48.178;11.716;2023-02-13T14:53:20;20.20;;;11.02;;
26163;SDS011;13914;48.178;11.716;2023-02-13T14:56:11;26.38;;;13.30;;
26163;SDS011;13914;48.178;11.716;2023-02-13T14:59:00;21.88;;;11.55;;
26163;SDS011;13914;48.178;11.716;2023-02-13T15:01:59;24.60;;;13.23;;
26163;SDS011;13914;48.178;11.716;2023-02-13T15:05:12;28.88;;;14.45;;
26163;SDS011;13914;48.178;11.716;2023-02-13T15:08:21;21.65;;;11.85;;
26163;SDS011;13914;48.178;11.716;2023-02-13T15:11:32;20.02;;;10.35;;
26163;SDS011;13914;48.178;11.716;2023-02-13T15:17:20;25.85;;;13.43;;
26163;SDS011;13914;48.178;11.716;2023-02-13T15:20:25;25.02;;;12.43;;
26163;SDS011;13914;48.178;11.716;2023-02-13T15:23:20;20.85;;;11.50;;
26163;SDS011;13914;48.178;11.716;2023-02-13T15:26:17;23.17;;;12.68;;
26163;SDS011;13914;48.178;11.716;2023-02-13T15:29:16;25.48;;;13.30;;
26163;SDS011;13914;48.178;11.716;2023-02-13T15:32:16;21.20;;;12.45;;
26163;SDS011;13914;48.178;11.716;2023-02-13T15:41:15;24.10;;;12.07;;
26163;SDS011;13914;48.178;11.716;2023-02-13T15:44:16;28.55;;;14.50;;
26163;SDS011;13914;48.178;11.716;2023-02-13T15:47:13;27.48;;;13.57;;
26163;SDS011;13914;48.178;11.716;2023-02-13T15:50:33;27.17;;;13.98;;
26163;SDS011;13914;48.178;11.716;2023-02-13T15:53:17;24.90;;;13.20;;
26163;SDS011;13914;48.178;11.716;2023-02-13T15:56:03;31.52;;;15.20;;
26163;SDS011;13914;48.178;11.716;2023-02-13T15:58:49;24.13;;;12.93;;
26163;SDS011;13914;48.178;11.716;2023-02-13T16:04:19;25.98;;;13.57;;
26163;SDS011;13914;48.178;11.716;2023-02-13T16:07:07;22.65;;;12.23;;
26163;SDS011;13914;48.178;11.716;2023-02-13T16:13:13;28.45;;;13.40;;
26163;SDS011;13914;48.178;11.716;2023-02-13T16:16:01;24.45;;;12.25;;
26163;SDS011;13914;48.178;11.716;2023-02-13T16:18:52;21.35;;;12.13;;
26163;SDS011;13914;48.178;11.716;2023-02-13T16:21:36;25.85;;;12.52;;
26163;SDS011;13914;48.178;11.716;2023-02-13T16:24:21;20.33;;;11.63;;
26163;SDS011;13914;48.178;11.716;2023-02-13T16:27:11;24.67;;;11.55;;
26163;SDS011;13914;48.178;11.716;2023-02-13T16:30:02;22.30;;;11.95;;
26163;SDS011;13914;48.178;11.716;2023-02-13T16:32:50;25.52;;;12.43;;
26163;SDS011;13914;48.178;11.716;2023-02-13T16:35:38;23.58;;;13.30;;
26163;SDS011;13914;48.178;11.716;2023-02-13T16:38:26;22.80;;;12.45;;
26163;SDS011;13914;48.178;11.716;2023-02-13T16:44:05;32.00;;;17.52;;
26163;SDS011;13914;48.178;11.716;2023-02-13T16:47:11;22.40;;;11.85;;
26163;SDS011;13914;48.178;11.716;2023-02-13T16:50:11;24.98;;;13.95;;
26163;SDS011;13914;48.178;11.716;2023-02-13T17:42:10;26.10;;;13.85;;
26163;SDS011;13914;48.178;11.716;2023-02-13T17:45:06;27.70;;;14.48;;
26163;SDS011;13914;48.178;11.716;2023-02-13T17:47:53;23.05;;;13.13;;
26163;SDS011;13914;48.178;11.716;2023-02-13T17:50:40;26.50;;;12.15;;
26163;SDS011;13914;48.178;11.716;2023-02-13T17:53:27;25.42;;;13.20;;
26163;SDS011;13914;48.178;11.716;2023-02-13T17:56:13;26.35;;;15.23;;
26163;SDS011;13914;48.178;11.716;2023-02-13T17:58:57;20.45;;;11.32;;
26163;SDS011;13914;48.178;11.716;2023-02-13T18:01:42;26.50;;;14.45;;
26163;SDS011;13914;48.178;11.716;2023-02-13T18:04:26;29.75;;;15.25;;
26163;SDS011;13914;48.178;11.716;2023-02-13T18:07:12;25.50;;;13.95;;
26163;SDS011;13914;48.178;11.716;2023-02-13T18:10:00;26.50;;;14.20;;
26163;SDS011;13914;48.178;11.716;2023-02-13T18:12:45;23.80;;;14.60;;
26163;SDS011;13914;48.178;11.716;2023-02-13T18:15:31;22.65;;;11.65;;
26163;SDS011;13914;48.178;11.716;2023-02-13T18:18:17;35.30;;;19.25;;
26163;SDS011;13914;48.178;11.716;2023-02-13T18:21:01;22.45;;;12.05;;
26163;SDS011;13914;48.178;11.716;2023-02-13T18:23:46;32.85;;;16.33;;
26163;SDS011;13914;48.178;11.716;2023-02-13T18:26:34;24.15;;;12.63;;
26163;SDS011;13914;48.178;11.716;2023-02-13T18:29:18;27.80;;;13.98;;
26163;SDS011;13914;48.178;11.716;2023-02-13T18:32:03;24.02;;;13.57;;
26163;SDS011;13914;48.178;11.716;2023-02-13T18:34:50;43.42;;;22.55;;
26163;SDS011;13914;48.178;11.716;2023-02-13T18:37:34;28.52;;;14.75;;
26163;SDS011;13914;48.178;11.716;2023-02-13T18:40:21;26.65;;;14.20;;
26163;SDS011;13914;48.178;11.716;2023-02-13T18:43:05;25.75;;;13.32;;
26163;SDS011;13914;48.178;11.716;2023-02-13T18:45:50;24.23;;;12.85;;
26163;SDS011;13914;48.178;11.716;2023-02-13T18:48:34;34.00;;;13.93;;
26163;SDS011;13914;48.178;11.716;2023-02-13T18:51:19;29.05;;;14.75;;
26163;SDS011;13914;48.178;11.716;2023-02-13T18:54:03;24.10;;;13.15;;
26163;SDS011;13914;48.178;11.716;2023-02-13T18:56:48;23.70;;;12.30;;
26163;SDS011;13914;48.178;11.716;2023-02-13T18:59:32;30.10;;;15.90;;
26163;SDS011;13914;48.178;11.716;2023-02-13T19:02:17;26.45;;;13.48;;
26163;SDS011;13914;48.178;11.716;2023-02-13T19:05:01;27.70;;;14.93;;
26163;SDS011;13914;48.178;11.716;2023-02-13T19:07:46;37.50;;;14.88;;
26163;SDS011;13914;48.178;11.716;2023-02-13T19:10:31;33.85;;;16.23;;
26163;SDS011;13914;48.178;11.716;2023-02-13T19:13:15;33.15;;;17.13;;
26163;SDS011;13914;48.178;11.716;2023-02-13T19:16:03;39.03;;;18.73;;
26163;SDS011;13914;48.178;11.716;2023-02-13T19:18:55;26.80;;;14.43;;
26163;SDS011;13914;48.178;11.716;2023-02-13T19:21:42;25.15;;;14.48;;
26163;SDS011;13914;48.178;11.716;2023-02-13T19:24:26;36.50;;;16.33;;
26163;SDS011;13914;48.178;11.716;2023-02-13T19:27:10;30.60;;;14.82;;
26163;SDS011;13914;48.178;11.716;2023-02-13T19:29:55;30.10;;;15.13;;
26163;SDS011;13914;48.178;11.716;2023-02-13T19:32:39;33.80;;;16.15;;
26163;SDS011;13914;48.178;11.716;2023-02-13T19:35:24;37.30;;;17.98;;
26163;SDS011;13914;48.178;11.716;2023-02-13T19:38:08;32.35;;;15.70;;
26163;SDS011;13914;48.178;11.716;2023-02-13T19:40:52;35.28;;;15.23;;
26163;SDS011;13914;48.178;11.716;2023-02-13T19:43:37;26.55;;;13.90;;
26163;SDS011;13914;48.178;11.716;2023-02-13T19:46:25;37.78;;;18.10;;
26163;SDS011;13914;48.178;11.716;2023-02-13T19:49:12;30.00;;;14.20;;
26163;SDS011;13914;48.178;11.716;2023-02-13T19:51:57;30.33;;;15.57;;
26163;SDS011;13914;48.178;11.716;2023-02-13T19:54:41;38.55;;;19.33;;
26163;SDS011;13914;48.178;11.716;2023-02-13T19:57:26;29.77;;;16.25;;
26163;SDS011;13914;48.178;11.716;2023-02-13T20:00:11;30.25;;;14.55;;
26163;SDS011;13914;48.178;11.716;2023-02-13T20:03:05;22.42;;;11.00;;